createdAt,value
2023-10-30T00:01:10.811Z,97385.91
2023-10-30T00:03:59.928Z,97384.25
2023-10-30T00:06:47.882Z,97381.13
2023-10-30T00:09:35.640Z,97389.56
2023-10-30T00:12:23.866Z,97385.91
2023-10-30T00:15:11.962Z,97382.59
2023-10-30T00:17:59.504Z,97396.91
2023-10-30T00:20:48.600Z,97390.38
2023-10-30T00:23:37.545Z,97391.22
2023-10-30T00:26:25.217Z,97390.03
2023-10-30T00:29:13.917Z,97396.19
2023-10-30T00:32:01.827Z,97408.47
2023-10-30T00:34:49.386Z,97404.81
2023-10-30T00:37:38.682Z,97426.09
2023-10-30T00:40:27.418Z,97429.75
2023-10-30T00:43:15.033Z,97425.88
2023-10-30T00:46:02.753Z,97443.03
2023-10-30T00:48:50.803Z,97441.84
2023-10-30T00:51:38.943Z,97459.50
2023-10-30T00:54:28.089Z,97459.31
2023-10-30T00:57:16.127Z,97468.28
2023-10-30T01:00:05.508Z,97478.47
2023-10-30T01:02:53.326Z,97479.31
2023-10-30T01:05:41.301Z,97489.47
2023-10-30T01:08:29.657Z,97482.94
2023-10-30T01:11:19.023Z,97483.63
2023-10-30T01:14:06.631Z,97479.66
2023-10-30T01:16:54.696Z,97483.66
2023-10-30T01:19:42.121Z,97476.72
2023-10-30T01:22:33.427Z,97486.31
2023-10-30T01:25:21.505Z,97492.00
2023-10-30T01:28:11.020Z,97495.88
2023-10-30T01:30:58.514Z,97497.50
2023-10-30T01:33:46.137Z,97491.38
2023-10-30T01:36:33.981Z,97478.25
2023-10-30T01:39:21.730Z,97471.09
2023-10-30T01:42:09.412Z,97459.09
2023-10-30T01:44:59.974Z,97473.03
2023-10-30T01:47:47.694Z,97472.09
2023-10-30T01:50:36.686Z,97471.44
2023-10-30T01:53:25.929Z,97465.31
2023-10-30T01:56:13.902Z,97469.97
2023-10-30T01:59:02.357Z,97475.66
2023-10-30T02:01:52.084Z,97483.47
2023-10-30T02:04:42.319Z,97480.78
2023-10-30T02:07:31.817Z,97483.47
2023-10-30T02:10:19.825Z,97487.63
2023-10-30T02:13:10.460Z,97487.78
2023-10-30T02:15:57.975Z,97484.28
2023-10-30T02:18:46.855Z,97487.50
2023-10-30T02:21:34.780Z,97486.19
2023-10-30T02:24:23.651Z,97478.41
2023-10-30T02:27:12.894Z,97482.53
2023-10-30T02:30:00.755Z,97474.84
2023-10-30T02:32:48.865Z,97482.66
2023-10-30T02:35:38.228Z,97477.88
2023-10-30T02:38:25.748Z,97464.91
2023-10-30T02:41:15.897Z,97466.56
2023-10-30T02:44:05.808Z,97468.38
2023-10-30T02:46:53.652Z,97464.63
2023-10-30T02:49:41.351Z,97464.00
2023-10-30T02:52:30.546Z,97460.66
2023-10-30T02:55:18.190Z,97465.31
2023-10-30T02:58:05.781Z,97459.84
2023-10-30T03:00:57.478Z,97457.72
2023-10-30T03:03:45.098Z,97466.41
2023-10-30T03:06:33.227Z,97463.09
2023-10-30T03:09:21.516Z,97452.81
2023-10-30T03:12:09.622Z,97466.13
2023-10-30T03:14:57.660Z,97459.50
2023-10-30T03:17:47.024Z,97461.16
2023-10-30T03:20:34.605Z,97455.47
2023-10-30T03:23:22.460Z,97455.19
2023-10-30T03:26:10.070Z,97443.59
2023-10-30T03:28:57.913Z,97445.25
2023-10-30T03:31:46.480Z,97443.56
2023-10-30T03:34:37.557Z,97451.00
2023-10-30T03:37:25.369Z,97441.72
2023-10-30T03:40:14.899Z,97435.47
2023-10-30T03:43:02.573Z,97441.97
2023-10-30T03:45:50.317Z,97441.47
2023-10-30T03:48:38.137Z,97437.72
2023-10-30T03:51:27.650Z,97440.22
2023-10-30T03:54:15.519Z,97437.13
2023-10-30T03:57:03.300Z,97436.81
2023-10-30T03:59:50.756Z,97437.50
2023-10-30T04:02:38.690Z,97445.19
2023-10-30T04:05:26.417Z,97443.06
2023-10-30T04:08:15.399Z,97444.41
2023-10-30T04:11:11.511Z,97440.44
2023-10-30T04:13:59.302Z,97437.94
2023-10-30T04:16:46.964Z,97444.44
2023-10-30T04:19:34.925Z,97441.28
2023-10-30T04:22:23.235Z,97444.47
2023-10-30T04:25:13.342Z,97448.63
2023-10-30T04:28:01.293Z,97439.34
2023-10-30T04:30:49.296Z,97441.88
2023-10-30T04:33:37.498Z,97437.09
2023-10-30T04:36:25.196Z,97428.16
2023-10-30T04:39:14.682Z,97435.81
2023-10-30T04:42:03.953Z,97448.75
2023-10-30T04:44:51.571Z,97442.31
2023-10-30T04:47:39.318Z,97433.22
2023-10-30T04:50:27.369Z,97441.84
2023-10-30T04:53:15.163Z,97431.91
2023-10-30T04:56:05.172Z,97425.66
2023-10-30T04:58:56.422Z,97412.06
2023-10-30T05:01:44.094Z,97409.91
2023-10-30T05:04:34.322Z,97398.16
2023-10-30T05:07:22.609Z,97401.16
2023-10-30T05:10:10.985Z,97403.34
2023-10-30T05:12:59.016Z,97401.03
2023-10-30T05:15:48.129Z,97396.22
2023-10-30T05:18:35.916Z,97389.75
2023-10-30T05:21:26.247Z,97396.22
2023-10-30T05:24:13.823Z,97390.63
2023-10-30T05:27:01.557Z,97398.91
2023-10-30T05:29:49.315Z,97392.25
2023-10-30T05:32:38.766Z,97388.97
2023-10-30T05:35:26.812Z,97389.28
2023-10-30T05:38:14.321Z,97394.25
2023-10-30T05:41:02.014Z,97395.44
2023-10-30T05:43:51.396Z,97395.94
2023-10-30T05:46:39.287Z,97401.88
2023-10-30T05:49:29.136Z,97404.22
2023-10-30T05:52:16.955Z,97393.78
2023-10-30T05:55:04.781Z,97394.75
2023-10-30T05:57:54.376Z,97394.28
2023-10-30T06:00:42.218Z,97398.91
2023-10-30T06:03:30.102Z,97392.28
2023-10-30T06:06:19.196Z,97383.69
2023-10-30T06:09:07.481Z,97374.09
2023-10-30T06:11:56.223Z,97379.38
2023-10-30T06:14:43.968Z,97379.72
2023-10-30T06:17:32.658Z,97388.66
2023-10-30T06:20:21.565Z,97397.41
2023-10-30T06:23:10.953Z,97409.50
2023-10-30T06:25:58.700Z,97406.19
2023-10-30T06:28:46.798Z,97417.63
2023-10-30T06:31:34.940Z,97418.44
2023-10-30T06:34:22.920Z,97434.31
2023-10-30T06:37:11.184Z,97438.47
2023-10-30T06:40:00.502Z,97425.41
2023-10-30T06:42:48.217Z,97421.44
2023-10-30T06:45:35.994Z,97425.06
2023-10-30T06:48:23.485Z,97420.25
2023-10-30T06:51:10.880Z,97392.44
2023-10-30T06:53:58.707Z,97400.19
2023-10-30T06:56:47.929Z,97417.22
2023-10-30T06:59:35.815Z,97416.50
2023-10-30T07:02:23.306Z,97430.09
2023-10-30T07:05:11.191Z,97441.84
2023-10-30T07:07:59.013Z,97435.06
2023-10-30T07:10:46.457Z,97427.59
2023-10-30T07:13:36.544Z,97426.78
2023-10-30T07:16:24.570Z,97428.25
2023-10-30T07:19:12.455Z,97435.53
2023-10-30T07:22:00.270Z,97438.00
2023-10-30T07:24:48.401Z,97445.75
2023-10-30T07:27:37.862Z,97451.69
2023-10-30T07:30:28.209Z,97459.59
2023-10-30T07:33:15.951Z,97469.50
2023-10-30T07:36:03.631Z,97464.19
2023-10-30T07:38:51.201Z,97473.81
2023-10-30T07:41:43.565Z,97466.47
2023-10-30T07:44:33.282Z,97457.19
2023-10-30T07:47:33.023Z,97443.44
2023-10-30T07:50:25.550Z,97445.28
2023-10-30T07:53:15.824Z,97461.16
2023-10-30T07:56:03.397Z,97457.47
2023-10-30T07:58:51.652Z,97447.78
2023-10-30T08:01:40.371Z,97438.66
2023-10-30T08:04:30.457Z,97446.44
2023-10-30T08:07:18.881Z,97437.81
2023-10-30T08:10:08.041Z,97441.41
2023-10-30T08:12:57.567Z,97447.31
2023-10-30T08:15:45.667Z,97457.22
2023-10-30T08:18:33.578Z,97445.47
2023-10-30T08:21:22.796Z,97447.59
2023-10-30T08:24:11.852Z,97450.75
2023-10-30T08:27:03.670Z,97452.56
2023-10-30T08:29:51.138Z,97461.59
2023-10-30T08:32:40.677Z,97458.16
2023-10-30T08:35:28.697Z,97455.06
2023-10-30T08:38:18.256Z,97444.81
2023-10-30T08:41:05.966Z,97437.91
2023-10-30T08:43:54.355Z,97445.47
2023-10-30T08:46:42.227Z,97447.41
2023-10-30T08:49:30.372Z,97432.81
2023-10-30T08:52:17.935Z,97428.25
2023-10-30T08:55:07.964Z,97420.50
2023-10-30T08:57:55.779Z,97419.59
2023-10-30T09:00:43.703Z,97415.81
2023-10-30T09:03:32.640Z,97410.31
2023-10-30T09:06:20.523Z,97407.88
2023-10-30T09:09:08.961Z,97400.44
2023-10-30T09:11:58.018Z,97389.94
2023-10-30T09:14:45.766Z,97393.50
2023-10-30T09:17:33.256Z,97387.03
2023-10-30T09:20:21.569Z,97386.88
2023-10-30T09:23:09.521Z,97384.09
2023-10-30T09:25:57.288Z,97372.59
2023-10-30T09:28:46.207Z,97370.44
2023-10-30T09:31:34.401Z,97364.41
2023-10-30T09:34:23.593Z,97359.38
2023-10-30T09:37:12.902Z,97354.97
2023-10-30T09:40:01.654Z,97356.47
2023-10-30T09:42:53.489Z,97340.53
2023-10-30T09:45:45.731Z,97329.47
2023-10-30T09:48:35.886Z,97333.22
2023-10-30T09:51:24.918Z,97329.53
2023-10-30T09:54:13.659Z,97323.41
2023-10-30T09:57:04.347Z,97336.22
2023-10-30T09:59:56.062Z,97335.41
2023-10-30T10:02:45.393Z,97325.78
2023-10-30T10:05:33.954Z,97325.63
2023-10-30T10:08:22.835Z,97316.81
2023-10-30T10:11:10.782Z,97318.69
2023-10-30T10:14:06.037Z,97312.94
2023-10-30T10:16:54.800Z,97303.28
2023-10-30T10:19:49.217Z,97304.16
2023-10-30T10:22:37.404Z,97294.91
2023-10-30T10:25:27.066Z,97290.41
2023-10-30T10:28:14.876Z,97273.13
2023-10-30T10:31:05.596Z,97275.19
2023-10-30T10:33:55.782Z,97268.19
2023-10-30T10:36:47.252Z,97261.38
2023-10-30T10:39:52.535Z,97253.38
2023-10-30T10:42:40.471Z,97246.53
2023-10-30T10:45:28.893Z,97240.97
2023-10-30T10:48:18.003Z,97233.31
2023-10-30T10:51:07.313Z,97227.75
2023-10-30T10:53:57.879Z,97217.44
2023-10-30T10:56:54.970Z,97209.19
2023-10-30T10:59:47.279Z,97208.13
2023-10-30T11:02:49.240Z,97209.97
2023-10-30T11:05:38.256Z,97198.03
2023-10-30T11:08:50.548Z,97186.03
2023-10-30T11:11:57.396Z,97172.56
2023-10-30T11:14:54.522Z,97172.28
2023-10-30T11:17:42.746Z,97163.59
2023-10-30T11:20:32.577Z,97164.00
2023-10-30T11:23:56.210Z,97164.34
2023-10-30T11:26:45.887Z,97170.47
2023-10-30T11:29:56.009Z,97160.13
2023-10-30T11:32:58.521Z,97152.66
2023-10-30T11:35:47.744Z,97146.88
2023-10-30T11:38:49.689Z,97136.97
2023-10-30T11:41:39.579Z,97130.09
2023-10-30T11:44:33.917Z,97125.78
2023-10-30T11:47:23.660Z,97118.41
2023-10-30T11:50:12.144Z,97110.13
2023-10-30T11:53:10.507Z,97089.63
2023-10-30T11:55:59.814Z,97075.69
2023-10-30T11:58:47.753Z,97076.53
2023-10-30T12:01:39.662Z,97071.47
2023-10-30T12:04:28.803Z,97062.00
2023-10-30T12:07:16.628Z,97064.44
2023-10-30T12:10:06.004Z,97051.69
2023-10-30T12:12:56.158Z,97041.69
2023-10-30T12:15:46.478Z,97062.72
2023-10-30T12:18:37.940Z,97043.78
2023-10-30T12:21:26.239Z,97041.47
2023-10-30T12:24:16.561Z,97039.97
2023-10-30T12:27:04.498Z,97024.66
2023-10-30T12:29:59.970Z,97025.25
2023-10-30T12:32:55.537Z,97015.13
2023-10-30T12:35:57.469Z,97021.44
2023-10-30T12:38:50.599Z,97007.88
2023-10-30T12:41:38.521Z,97007.84
2023-10-30T12:44:27.585Z,97008.66
2023-10-30T12:47:15.709Z,96993.00
2023-10-30T12:50:04.506Z,96985.50
2023-10-30T12:52:53.698Z,96981.03
2023-10-30T12:55:41.436Z,96961.19
2023-10-30T12:58:29.127Z,96968.19
2023-10-30T13:01:16.894Z,96956.28
2023-10-30T13:04:05.263Z,96953.44
2023-10-30T13:06:53.203Z,96954.75
2023-10-30T13:09:42.436Z,96950.19
2023-10-30T13:12:31.758Z,96936.63
2023-10-30T13:15:20.883Z,96936.38
2023-10-30T13:18:10.042Z,96937.75
2023-10-30T13:20:58.085Z,96934.00
2023-10-30T13:23:48.614Z,96941.31
2023-10-30T13:26:39.713Z,96938.59
2023-10-30T13:29:28.908Z,96919.63
2023-10-30T13:32:16.988Z,96919.13
2023-10-30T13:35:05.240Z,96919.59
2023-10-30T13:37:53.416Z,96911.53
2023-10-30T13:40:41.283Z,96899.53
2023-10-30T13:43:32.342Z,96902.13
2023-10-30T13:46:20.120Z,96894.69
2023-10-30T13:49:08.202Z,96898.31
2023-10-30T13:51:59.009Z,96891.34
2023-10-30T13:54:48.183Z,96877.09
2023-10-30T13:57:36.154Z,96866.75
2023-10-30T14:00:25.644Z,96863.13
2023-10-30T14:03:14.423Z,96860.19
2023-10-30T14:06:02.539Z,96869.09
2023-10-30T14:08:51.177Z,96867.00
2023-10-30T14:11:39.310Z,96862.31
2023-10-30T14:14:27.297Z,96856.47
2023-10-30T14:17:16.361Z,96857.38
2023-10-30T14:20:04.653Z,96853.28
2023-10-30T14:22:52.355Z,96845.56
2023-10-30T14:25:40.035Z,96848.47
2023-10-30T14:28:27.444Z,96844.47
2023-10-30T14:31:15.367Z,96844.47
2023-10-30T14:34:04.507Z,96837.94
2023-10-30T14:36:52.316Z,96829.94
2023-10-30T14:39:40.057Z,96825.25
2023-10-30T14:42:27.513Z,96813.47
2023-10-30T14:45:15.687Z,96819.06
2023-10-30T14:48:04.033Z,96816.72
2023-10-30T14:50:57.669Z,96819.63
2023-10-30T14:53:45.261Z,96811.25
2023-10-30T14:56:34.938Z,96805.13
2023-10-30T14:59:22.949Z,96803.00
2023-10-30T15:02:10.925Z,96790.72
2023-10-30T15:05:01.299Z,96790.34
2023-10-30T15:07:52.160Z,96772.75
2023-10-30T15:10:39.952Z,96776.09
2023-10-30T15:13:27.926Z,96776.19
2023-10-30T15:16:15.825Z,96777.91
2023-10-30T15:19:04.102Z,96778.34
2023-10-30T15:21:52.119Z,96768.06
2023-10-30T15:24:43.320Z,96777.63
2023-10-30T15:27:34.838Z,96761.84
2023-10-30T15:30:22.436Z,96753.28
2023-10-30T15:33:10.149Z,96756.47
2023-10-30T15:35:58.164Z,96754.06
2023-10-30T15:38:45.730Z,96749.59
2023-10-30T15:41:37.590Z,96736.53
2023-10-30T15:44:25.366Z,96712.94
2023-10-30T15:47:24.312Z,96713.63
2023-10-30T15:50:13.006Z,96711.59
2023-10-30T16:01:33.631Z,96689.19
2023-10-30T16:04:23.971Z,96679.41
2023-10-30T16:07:12.766Z,96658.91
2023-10-30T16:12:51.601Z,96657.38
2023-10-30T16:15:40.594Z,96649.03
2023-10-30T16:18:28.367Z,96642.72
2023-10-30T16:21:17.179Z,96647.06
2023-10-30T16:24:05.941Z,96646.44
2023-10-30T16:26:54.109Z,96648.50
2023-10-30T16:29:41.906Z,96652.66
2023-10-30T16:32:31.174Z,96647.19
2023-10-30T16:35:18.966Z,96633.44
2023-10-30T16:38:06.755Z,96633.03
2023-10-30T16:40:54.641Z,96641.47
2023-10-30T16:43:42.475Z,96638.44
2023-10-30T16:46:30.406Z,96642.16
2023-10-30T16:49:19.947Z,96637.25
2023-10-30T16:52:07.731Z,96636.63
2023-10-30T16:54:56.707Z,96628.22
2023-10-30T16:57:44.662Z,96628.66
2023-10-30T17:00:32.331Z,96631.78
2023-10-30T17:03:20.120Z,96638.56
2023-10-30T17:06:10.544Z,96644.34
2023-10-30T17:08:58.598Z,96650.13
2023-10-30T17:11:46.590Z,96661.22
2023-10-30T17:14:34.156Z,96652.03
2023-10-30T17:17:22.355Z,96652.44
2023-10-30T17:20:12.591Z,96646.53
2023-10-30T17:23:01.691Z,96658.22
2023-10-30T17:25:49.731Z,96678.38
2023-10-30T17:28:37.519Z,96682.50
2023-10-30T17:31:25.311Z,96676.75
2023-10-30T17:34:14.108Z,96687.06
2023-10-30T17:37:01.924Z,96676.81
2023-10-30T17:39:52.795Z,96663.91
2023-10-30T17:42:41.737Z,96663.28
2023-10-30T17:45:29.412Z,96659.41
2023-10-30T17:48:17.184Z,96653.88
2023-10-30T17:51:05.787Z,96640.75
2023-10-30T17:53:53.643Z,96650.22
2023-10-30T17:56:42.783Z,96643.88
2023-10-30T17:59:30.838Z,96646.97
2023-10-30T18:02:19.520Z,96634.28
2023-10-30T18:05:08.264Z,96636.94
2023-10-30T18:07:56.377Z,96628.31
2023-10-30T18:10:46.779Z,96637.34
2023-10-30T18:13:36.053Z,96620.56
2023-10-30T18:16:23.868Z,96610.31
2023-10-30T18:19:13.579Z,96619.34
2023-10-30T18:22:01.460Z,96618.94
2023-10-30T18:24:49.297Z,96611.34
2023-10-30T18:27:37.406Z,96607.47
2023-10-30T18:30:26.668Z,96594.78
2023-10-30T18:33:14.647Z,96595.19
2023-10-30T18:36:02.477Z,96586.38
2023-10-30T18:38:50.341Z,96573.44
2023-10-30T18:41:38.138Z,96552.97
2023-10-30T18:44:26.149Z,96544.97
2023-10-30T18:47:15.746Z,96546.22
2023-10-30T18:50:04.505Z,96541.88
2023-10-30T18:52:52.563Z,96540.25
2023-10-30T18:55:40.430Z,96530.63
2023-10-30T18:58:29.894Z,96550.31
2023-10-30T19:01:20.241Z,96551.34
2023-10-30T19:04:09.713Z,96555.47
2023-10-30T19:06:57.517Z,96567.75
2023-10-30T19:09:45.060Z,96550.94
2023-10-30T19:12:33.813Z,96545.22
2023-10-30T19:15:21.623Z,96546.28
2023-10-30T19:18:09.957Z,96542.78
2023-10-30T19:20:59.204Z,96556.31
2023-10-30T19:23:46.714Z,96550.38
2023-10-30T19:26:34.403Z,96562.25
2023-10-30T19:29:22.123Z,96558.78
2023-10-30T19:32:10.161Z,96553.44
2023-10-30T19:34:58.090Z,96543.19
2023-10-30T19:37:47.351Z,96557.56
2023-10-30T19:40:36.699Z,96561.25
2023-10-30T19:43:24.230Z,96559.59
2023-10-30T19:46:11.826Z,96545.69
2023-10-30T19:48:59.480Z,96541.38
2023-10-30T19:51:55.870Z,96531.75
2023-10-30T19:54:48.214Z,96531.16
2023-10-30T19:57:37.037Z,96516.19
2023-10-30T20:00:24.926Z,96540.16
2023-10-30T20:03:12.885Z,96540.16
2023-10-30T20:06:00.873Z,96543.88
2023-10-30T20:08:48.331Z,96552.28
2023-10-30T20:11:38.072Z,96556.97
2023-10-30T20:14:29.481Z,96569.50
2023-10-30T20:17:17.183Z,96580.56
2023-10-30T20:20:05.643Z,96586.53
2023-10-30T20:22:53.157Z,96591.22
2023-10-30T20:25:40.690Z,96593.31
2023-10-30T20:28:29.838Z,96581.41
2023-10-30T20:31:17.815Z,96573.22
2023-10-30T20:34:05.661Z,96570.53
2023-10-30T20:36:53.152Z,96562.56
2023-10-30T20:39:40.864Z,96558.84
2023-10-30T20:42:28.495Z,96545.13
2023-10-30T20:45:17.616Z,96563.16
2023-10-30T20:48:06.626Z,96570.34
2023-10-30T20:50:54.847Z,96588.38
2023-10-30T20:53:42.673Z,96585.69
2023-10-30T20:56:30.207Z,96594.53
2023-10-30T20:59:17.847Z,96594.53
2023-10-30T21:02:06.985Z,96596.16
2023-10-30T21:04:56.795Z,96596.97
2023-10-30T21:07:45.231Z,96597.97
2023-10-30T21:10:32.790Z,96592.88
2023-10-30T21:13:21.215Z,96599.44
2023-10-30T21:16:09.564Z,96595.72
2023-10-30T21:18:59.481Z,96595.94
2023-10-30T21:21:47.948Z,96595.56
2023-10-30T21:24:35.348Z,96590.44
2023-10-30T21:27:22.880Z,96586.31
2023-10-30T21:30:11.426Z,96581.19
2023-10-30T21:32:59.190Z,96574.03
2023-10-30T21:35:48.394Z,96594.09
2023-10-30T21:38:37.016Z,96588.56
2023-10-30T21:41:24.925Z,96586.53
2023-10-30T21:44:12.549Z,96587.56
2023-10-30T21:47:00.414Z,96586.94
2023-10-30T21:49:48.809Z,96599.84
2023-10-30T21:52:38.717Z,96606.81
2023-10-30T21:55:26.699Z,96617.06
2023-10-30T21:58:20.293Z,96621.56
2023-10-30T22:01:08.216Z,96622.41
2023-10-30T22:03:56.144Z,96625.28
2023-10-30T22:06:44.407Z,96633.66
2023-10-30T22:09:33.520Z,96632.00
2023-10-30T22:12:21.490Z,96645.31
2023-10-30T22:15:11.393Z,96641.88
2023-10-30T22:17:59.256Z,96639.41
2023-10-30T22:20:46.913Z,96636.94
2023-10-30T22:23:34.950Z,96644.94
2023-10-30T22:26:24.382Z,96646.16
2023-10-30T22:29:11.956Z,96650.66
2023-10-30T22:31:59.585Z,96659.06
2023-10-30T22:34:47.438Z,96665.00
2023-10-30T22:37:35.488Z,96667.84
2023-10-30T22:40:23.488Z,96671.56
2023-10-30T22:43:12.533Z,96676.88
2023-10-30T22:46:00.337Z,96673.63
2023-10-30T22:48:48.406Z,96673.63
2023-10-30T22:51:36.102Z,96676.28
2023-10-30T22:54:23.762Z,96680.97
2023-10-30T22:57:11.801Z,96691.00
2023-10-30T23:00:01.102Z,96681.38
2023-10-30T23:02:49.573Z,96668.47
2023-10-30T23:05:37.686Z,96678.94
2023-10-30T23:08:25.454Z,96694.06
2023-10-30T23:11:13.279Z,96690.41
2023-10-30T23:14:01.389Z,96680.97
2023-10-30T23:16:50.543Z,96685.50
2023-10-30T23:19:38.239Z,96683.84
2023-10-30T23:22:25.968Z,96671.97
2023-10-30T23:25:16.430Z,96676.47
2023-10-30T23:28:04.244Z,96688.75
2023-10-30T23:30:52.043Z,96695.75
2023-10-30T23:33:41.097Z,96692.88
2023-10-30T23:36:28.812Z,96694.69
2023-10-30T23:39:16.391Z,96692.44
2023-10-30T23:42:04.274Z,96683.44
2023-10-30T23:44:51.992Z,96679.75
2023-10-30T23:47:39.905Z,96679.75
2023-10-30T23:50:29.396Z,96691.22
2023-10-30T23:53:17.327Z,96688.34
2023-10-30T23:56:06.021Z,96696.34
2023-10-30T23:58:53.622Z,96700.25
